createdAt,value
2019-05-05T00:01:35.103Z,9.85
2019-05-05T00:04:21.363Z,10.43
2019-05-05T00:06:54.896Z,9.28
2019-05-05T00:09:26.656Z,9.53
2019-05-05T00:12:17.878Z,8.93
2019-05-05T00:15:02.103Z,8.95
2019-05-05T00:17:38.418Z,8.05
2019-05-05T00:20:10.106Z,8.58
2019-05-05T00:22:41.822Z,8.70
2019-05-05T00:25:14.334Z,9.45
2019-05-05T00:27:47.853Z,9.43
2019-05-05T00:30:19.622Z,10.25
2019-05-05T00:32:54.850Z,9.55
2019-05-05T00:35:27.152Z,9.90
2019-05-05T00:38:01.995Z,9.18
2019-05-05T00:40:35.306Z,9.35
2019-05-05T00:43:07.180Z,9.70
2019-05-05T00:45:40.135Z,10.38
2019-05-05T00:48:20.241Z,9.60
2019-05-05T00:50:55.643Z,9.20
2019-05-05T00:53:27.252Z,10.20
2019-05-05T00:56:02.435Z,9.75
2019-05-05T00:58:35.826Z,10.05
2019-05-05T01:01:19.594Z,10.48
2019-05-05T01:03:51.771Z,9.10
2019-05-05T01:06:29.575Z,10.85
2019-05-05T01:09:04.390Z,9.23
2019-05-05T01:11:37.520Z,9.78
2019-05-05T01:14:09.194Z,10.05
2019-05-05T01:16:40.844Z,8.55
2019-05-05T01:19:12.532Z,9.40
2019-05-05T01:21:45.371Z,9.70
2019-05-05T01:24:17.161Z,9.30
2019-05-05T01:26:50.302Z,9.33
2019-05-05T01:29:21.957Z,9.48
2019-05-05T01:31:55.316Z,8.65
2019-05-05T01:34:34.866Z,10.08
2019-05-05T01:37:16.676Z,9.20
2019-05-05T01:40:02.232Z,10.10
2019-05-05T01:42:35.279Z,9.05
2019-05-05T01:45:07.246Z,9.40
2019-05-05T01:47:38.894Z,9.48
2019-05-05T01:50:18.488Z,9.30
2019-05-05T01:52:45.613Z,9.15
2019-05-05T01:55:17.314Z,9.78
2019-05-05T01:57:49.993Z,8.08
2019-05-05T02:00:25.222Z,8.85
2019-05-05T02:02:56.539Z,9.70
2019-05-05T02:05:28.189Z,9.23
2019-05-05T02:08:01.072Z,9.08
2019-05-05T02:10:34.873Z,8.45
2019-05-05T02:13:06.284Z,8.98
2019-05-05T02:15:38.225Z,9.68
2019-05-05T02:18:09.976Z,9.43
2019-05-05T02:21:05.942Z,10.18
2019-05-05T02:23:38.890Z,9.15
2019-05-05T02:26:10.563Z,8.83
2019-05-05T02:29:00.919Z,9.15
2019-05-05T02:31:50.430Z,9.75
2019-05-05T02:34:25.544Z,9.33
2019-05-05T02:36:56.570Z,9.60
2019-05-05T02:39:28.523Z,9.28
2019-05-05T02:42:00.364Z,9.13
2019-05-05T02:44:34.677Z,9.55
2019-05-05T02:47:11.830Z,9.35
2019-05-05T02:49:45.378Z,9.73
2019-05-05T02:52:17.163Z,8.40
2019-05-05T02:54:49.803Z,9.28
2019-05-05T02:57:21.519Z,8.93
2019-05-05T03:00:14.874Z,9.03
2019-05-05T03:02:48.431Z,8.18
2019-05-05T03:05:20.185Z,9.25
2019-05-05T03:07:51.902Z,10.05
2019-05-05T03:10:24.687Z,8.63
2019-05-05T03:12:56.359Z,8.48
2019-05-05T03:15:55.021Z,8.03
2019-05-05T03:18:26.384Z,9.03
2019-05-05T03:21:04.508Z,9.20
2019-05-05T03:23:33.434Z,10.78
2019-05-05T03:26:05.314Z,8.95
2019-05-05T03:28:45.360Z,8.25
2019-05-05T03:31:17.666Z,9.45
2019-05-05T03:33:54.702Z,8.60
2019-05-05T03:36:24.960Z,9.15
2019-05-05T03:38:56.856Z,8.95
2019-05-05T03:41:35.351Z,8.90
2019-05-05T03:44:28.853Z,9.43
2019-05-05T03:47:00.620Z,9.23
2019-05-05T03:49:33.812Z,8.30
2019-05-05T03:52:05.913Z,9.03
2019-05-05T03:54:37.623Z,9.25
2019-05-05T03:57:09.376Z,9.20
2019-05-05T03:59:44.042Z,8.40
2019-05-05T04:02:37.265Z,8.98
2019-05-05T04:05:26.771Z,9.80
2019-05-05T04:07:58.445Z,8.73
2019-05-05T04:10:33.500Z,9.45
2019-05-05T04:13:07.047Z,8.65
2019-05-05T04:15:44.198Z,8.63
2019-05-05T04:18:23.734Z,9.85
2019-05-05T04:20:54.904Z,9.45
2019-05-05T04:23:27.057Z,9.63
2019-05-05T04:25:58.741Z,10.72
2019-05-05T04:28:30.479Z,9.20
2019-05-05T04:31:04.093Z,9.53
2019-05-05T04:33:35.586Z,9.48
2019-05-05T04:36:07.648Z,8.73
2019-05-05T04:38:39.525Z,10.82
2019-05-05T04:41:11.257Z,9.05
2019-05-05T04:43:44.170Z,10.95
2019-05-05T04:46:16.057Z,10.38
2019-05-05T04:48:56.756Z,9.43
2019-05-05T04:51:46.296Z,9.08
2019-05-05T04:54:27.090Z,9.08
2019-05-05T04:56:58.756Z,9.38
2019-05-05T04:59:30.420Z,9.15
2019-05-05T05:02:06.725Z,8.73
2019-05-05T05:04:46.936Z,7.97
2019-05-05T05:07:19.339Z,8.03
2019-05-05T05:09:51.564Z,7.70
2019-05-05T05:12:25.004Z,8.43
2019-05-05T05:14:57.054Z,7.28
2019-05-05T05:17:36.653Z,7.17
2019-05-05T05:20:08.337Z,5.25
2019-05-05T05:22:39.991Z,4.20
2019-05-05T05:25:14.508Z,3.52
2019-05-05T05:27:46.194Z,4.80
2019-05-05T05:30:24.138Z,4.62
2019-05-05T05:32:56.527Z,4.92
2019-05-05T05:35:28.208Z,8.25
2019-05-05T05:38:01.639Z,7.05
2019-05-05T05:40:41.166Z,6.50
2019-05-05T05:43:16.736Z,6.15
2019-05-05T05:45:58.103Z,7.40
2019-05-05T05:48:49.750Z,6.25
2019-05-05T05:51:23.800Z,5.10
2019-05-05T05:53:55.596Z,4.25
2019-05-05T05:56:27.337Z,5.33
2019-05-05T05:58:58.996Z,2.80
2019-05-05T06:01:34.392Z,2.60
2019-05-05T06:04:05.761Z,2.72
2019-05-05T06:06:37.472Z,1.92
2019-05-05T06:09:09.209Z,1.85
2019-05-05T06:11:40.892Z,1.70
2019-05-05T06:14:14.433Z,2.47
2019-05-05T06:16:47.117Z,2.35
2019-05-05T06:19:18.970Z,2.12
2019-05-05T06:21:54.272Z,1.42
2019-05-05T06:24:27.036Z,1.50
2019-05-05T06:26:59.878Z,1.32
2019-05-05T06:29:34.533Z,1.20
2019-05-05T06:32:08.000Z,1.70
2019-05-05T06:34:39.688Z,1.30
2019-05-05T06:37:11.364Z,1.30
2019-05-05T06:39:43.985Z,0.90
2019-05-05T06:42:31.224Z,0.80
2019-05-05T06:45:11.413Z,0.98
2019-05-05T06:47:44.696Z,1.40
2019-05-05T06:50:16.339Z,1.65
2019-05-05T06:52:48.372Z,0.80
2019-05-05T06:55:20.285Z,0.90
2019-05-05T06:57:53.890Z,0.88
2019-05-05T07:00:25.673Z,0.80
2019-05-05T07:02:57.325Z,0.90
2019-05-05T07:05:29.083Z,0.95
2019-05-05T07:08:00.715Z,0.50
2019-05-05T07:10:33.880Z,0.70
2019-05-05T07:13:06.197Z,0.80
2019-05-05T07:15:38.042Z,1.00
2019-05-05T07:18:19.671Z,1.02
2019-05-05T07:21:03.813Z,1.15
2019-05-05T07:23:35.680Z,1.27
2019-05-05T07:26:07.312Z,1.40
2019-05-05T07:28:38.995Z,1.37
2019-05-05T07:31:10.624Z,0.90
2019-05-05T07:33:43.809Z,1.42
2019-05-05T07:36:34.028Z,1.95
2019-05-05T07:39:08.716Z,0.80
2019-05-05T07:41:40.793Z,1.17
2019-05-05T07:44:25.787Z,1.00
2019-05-05T07:46:45.835Z,0.90
2019-05-05T07:49:17.499Z,0.93
2019-05-05T07:51:49.423Z,1.10
2019-05-05T07:54:23.639Z,1.00
2019-05-05T07:56:55.839Z,0.88
2019-05-05T07:59:30.117Z,1.20
2019-05-05T08:02:04.071Z,1.10
2019-05-05T08:04:36.682Z,1.37
2019-05-05T08:07:08.550Z,1.37
2019-05-05T08:09:54.266Z,1.00
2019-05-05T08:12:26.550Z,1.57
2019-05-05T08:15:08.838Z,1.22
2019-05-05T08:18:09.763Z,0.80
2019-05-05T08:20:44.421Z,1.50
2019-05-05T08:23:31.827Z,1.27
2019-05-05T08:26:23.670Z,0.82
2019-05-05T08:29:14.353Z,1.02
2019-05-05T08:32:04.338Z,1.00
2019-05-05T08:34:36.398Z,1.35
2019-05-05T08:37:08.137Z,0.93
2019-05-05T08:39:40.482Z,1.10
2019-05-05T08:42:14.269Z,1.20
2019-05-05T08:44:45.602Z,1.20
2019-05-05T08:47:17.414Z,1.10
2019-05-05T08:49:49.050Z,1.55
2019-05-05T08:52:20.728Z,1.10
2019-05-05T08:54:54.169Z,1.07
2019-05-05T08:57:25.978Z,0.85
2019-05-05T08:59:58.128Z,1.10
2019-05-05T09:02:33.022Z,0.82
2019-05-05T09:05:04.238Z,1.40
2019-05-05T09:07:36.637Z,0.93
2019-05-05T09:10:08.702Z,1.02
2019-05-05T09:12:43.712Z,2.05
2019-05-05T09:15:18.366Z,1.25
2019-05-05T09:17:50.159Z,1.30
2019-05-05T09:20:24.055Z,1.00
2019-05-05T09:22:57.299Z,1.22
2019-05-05T09:25:54.040Z,1.00
2019-05-05T09:28:30.392Z,1.20
2019-05-05T09:31:04.045Z,1.17
2019-05-05T09:33:35.470Z,1.57
2019-05-05T09:36:07.362Z,1.00
2019-05-05T09:38:39.139Z,1.27
2019-05-05T09:41:10.802Z,1.20
2019-05-05T09:43:48.721Z,1.40
2019-05-05T09:46:20.396Z,1.62
2019-05-05T09:48:54.022Z,1.55
2019-05-05T09:51:25.458Z,1.45
2019-05-05T09:54:10.249Z,1.47
2019-05-05T09:56:30.795Z,2.17
2019-05-05T09:59:03.782Z,1.70
2019-05-05T10:01:35.612Z,1.20
2019-05-05T10:04:11.231Z,1.45
2019-05-05T10:06:47.620Z,1.82
2019-05-05T10:09:16.380Z,1.70
2019-05-05T10:11:48.080Z,1.27
2019-05-05T10:14:19.794Z,1.87
2019-05-05T10:16:51.637Z,1.62
2019-05-05T10:19:24.366Z,1.25
2019-05-05T10:21:56.337Z,1.80
2019-05-05T10:24:39.342Z,1.90
2019-05-05T10:27:10.982Z,2.05
2019-05-05T10:29:44.222Z,2.20
2019-05-05T10:32:16.073Z,1.95
2019-05-05T10:35:01.034Z,2.12
2019-05-05T10:37:34.659Z,1.95
2019-05-05T10:40:31.504Z,1.07
2019-05-05T10:43:04.405Z,3.83
2019-05-05T10:45:36.549Z,1.45
2019-05-05T10:48:10.116Z,1.40
2019-05-05T10:50:41.750Z,1.20
2019-05-05T10:53:13.701Z,1.22
2019-05-05T10:55:45.465Z,1.30
2019-05-05T10:58:17.127Z,1.55
2019-05-05T11:00:54.481Z,1.47
2019-05-05T11:03:26.465Z,1.25
2019-05-05T11:05:58.248Z,1.12
2019-05-05T11:08:30.875Z,1.60
2019-05-05T11:11:04.206Z,1.57
2019-05-05T11:13:37.354Z,1.27
2019-05-05T11:16:09.180Z,2.87
2019-05-05T11:18:40.847Z,1.62
2019-05-05T11:21:14.604Z,1.85
2019-05-05T11:23:46.700Z,1.15
2019-05-05T11:26:18.397Z,1.20
2019-05-05T11:28:50.152Z,1.32
2019-05-05T11:31:23.819Z,1.27
2019-05-05T11:34:20.174Z,1.12
2019-05-05T11:37:06.645Z,1.17
2019-05-05T11:39:38.376Z,1.90
2019-05-05T11:42:10.010Z,1.42
2019-05-05T11:44:41.666Z,1.40
2019-05-05T11:47:14.018Z,1.45
2019-05-05T11:49:46.715Z,1.50
2019-05-05T11:52:18.537Z,1.62
2019-05-05T11:54:50.755Z,1.45
2019-05-05T11:57:23.968Z,1.30
2019-05-05T11:59:55.640Z,1.42
2019-05-05T12:02:28.505Z,1.45
2019-05-05T12:05:00.257Z,1.10
2019-05-05T12:07:34.096Z,1.40
2019-05-05T12:10:07.039Z,1.60
2019-05-05T12:12:39.783Z,1.40
2019-05-05T12:15:13.415Z,1.72
2019-05-05T12:17:46.933Z,1.47
2019-05-05T12:20:24.115Z,1.35
2019-05-05T12:22:57.569Z,1.60
2019-05-05T12:26:00.408Z,1.70
2019-05-05T12:28:45.475Z,1.60
2019-05-05T12:31:24.777Z,1.52
2019-05-05T12:33:56.417Z,1.92
2019-05-05T12:36:31.486Z,2.25
2019-05-05T12:39:04.812Z,1.72
2019-05-05T12:41:38.004Z,1.77
2019-05-05T12:44:11.408Z,2.02
2019-05-05T12:46:53.239Z,1.80
2019-05-05T12:49:25.532Z,1.87
2019-05-05T12:51:57.870Z,2.00
2019-05-05T12:54:29.630Z,2.30
2019-05-05T12:57:01.299Z,2.00
2019-05-05T12:59:33.973Z,1.90
2019-05-05T13:02:06.249Z,1.90
2019-05-05T13:04:38.027Z,2.00
2019-05-05T13:07:09.816Z,1.72
2019-05-05T13:09:41.536Z,1.77
2019-05-05T13:12:15.052Z,1.80
2019-05-05T13:14:46.729Z,2.33
2019-05-05T13:17:19.755Z,1.85
2019-05-05T13:20:24.593Z,2.27
2019-05-05T13:23:29.784Z,1.90
2019-05-05T13:26:06.214Z,2.15
2019-05-05T13:28:37.851Z,2.00
2019-05-05T13:31:09.893Z,2.00
2019-05-05T13:33:41.621Z,1.60
2019-05-05T13:36:13.834Z,2.10
2019-05-05T13:38:45.868Z,2.17
2019-05-05T13:41:17.501Z,2.02
2019-05-05T13:43:49.383Z,2.25
2019-05-05T13:46:24.806Z,2.02
2019-05-05T13:49:15.898Z,2.20
2019-05-05T13:51:47.556Z,1.70
2019-05-05T13:54:20.100Z,1.87
2019-05-05T13:56:52.939Z,2.12
2019-05-05T13:59:25.608Z,1.85
2019-05-05T14:01:57.529Z,2.05
2019-05-05T14:04:29.620Z,1.92
2019-05-05T14:07:01.350Z,2.05
2019-05-05T14:09:33.262Z,2.12
2019-05-05T14:12:05.409Z,1.62
2019-05-05T14:14:37.078Z,1.57
2019-05-05T14:17:08.720Z,1.70
2019-05-05T14:19:40.549Z,2.00
2019-05-05T14:22:12.542Z,1.80
2019-05-05T14:24:53.748Z,1.80
2019-05-05T14:27:26.318Z,1.82
2019-05-05T14:30:14.348Z,1.87
2019-05-05T14:32:46.606Z,1.75
2019-05-05T14:35:27.497Z,2.50
2019-05-05T14:38:03.898Z,3.30
2019-05-05T14:40:35.711Z,3.65
2019-05-05T14:43:07.387Z,3.85
2019-05-05T14:45:41.597Z,3.83
2019-05-05T14:48:13.964Z,4.03
2019-05-05T14:50:45.654Z,3.55
2019-05-05T14:53:18.133Z,4.37
2019-05-05T14:55:50.057Z,4.20
2019-05-05T14:58:21.695Z,4.35
2019-05-05T15:00:53.371Z,4.20
2019-05-05T15:03:25.092Z,4.08
2019-05-05T15:06:10.060Z,3.90
2019-05-05T15:09:13.872Z,3.55
2019-05-05T15:12:04.722Z,4.17
2019-05-05T15:14:39.315Z,3.85
2019-05-05T15:17:14.134Z,4.22
2019-05-05T15:19:46.031Z,4.15
2019-05-05T15:22:17.735Z,4.10
2019-05-05T15:24:49.998Z,4.08
2019-05-05T15:27:24.171Z,3.90
2019-05-05T15:29:56.077Z,3.75
2019-05-05T15:32:27.890Z,4.60
2019-05-05T15:34:59.616Z,4.15
2019-05-05T15:37:31.267Z,4.47
2019-05-05T15:40:03.983Z,5.87
2019-05-05T15:42:35.799Z,4.40
2019-05-05T15:45:09.720Z,4.58
2019-05-05T15:47:44.465Z,4.60
2019-05-05T15:50:17.852Z,4.67
2019-05-05T15:52:49.433Z,4.53
2019-05-05T15:55:21.095Z,4.53
2019-05-05T15:57:52.841Z,4.80
2019-05-05T16:00:25.642Z,5.22
2019-05-05T16:02:57.570Z,4.35
2019-05-05T16:05:29.451Z,5.00
2019-05-05T16:08:01.158Z,6.75
2019-05-05T16:10:34.669Z,4.78
2019-05-05T16:13:06.241Z,4.53
2019-05-05T16:16:00.386Z,4.90
2019-05-05T16:19:02.521Z,5.20
2019-05-05T16:21:50.190Z,4.87
2019-05-05T16:24:30.829Z,5.30
2019-05-05T16:27:17.928Z,4.33
2019-05-05T16:29:39.627Z,4.42
2019-05-05T16:32:19.544Z,5.12
2019-05-05T16:34:44.791Z,4.95
2019-05-05T16:37:16.516Z,5.45
2019-05-05T16:39:49.488Z,5.00
2019-05-05T16:42:21.182Z,4.62
2019-05-05T16:44:56.876Z,4.75
2019-05-05T16:47:29.785Z,5.25
2019-05-05T16:50:04.101Z,5.12
2019-05-05T16:52:40.768Z,4.50
2019-05-05T16:55:31.746Z,4.80
2019-05-05T16:58:04.009Z,4.92
2019-05-05T17:00:38.563Z,5.12
2019-05-05T17:03:10.704Z,4.78
2019-05-05T17:05:44.148Z,5.15
2019-05-05T17:08:15.773Z,5.00
2019-05-05T17:10:48.823Z,5.17
2019-05-05T17:13:34.479Z,3.52
2019-05-05T17:16:44.050Z,3.90
2019-05-05T17:19:41.635Z,3.85
2019-05-05T17:22:38.559Z,4.17
2019-05-05T17:25:11.267Z,4.03
2019-05-05T17:27:48.794Z,4.12
2019-05-05T17:30:16.730Z,3.33
2019-05-05T17:32:48.412Z,4.10
2019-05-05T17:35:20.447Z,3.95
2019-05-05T17:37:53.875Z,4.67
2019-05-05T17:40:33.637Z,4.20
2019-05-05T17:43:24.334Z,4.92
2019-05-05T17:46:16.569Z,5.22
2019-05-05T17:49:07.146Z,5.42
2019-05-05T17:51:43.640Z,6.72
2019-05-05T17:54:26.991Z,5.80
2019-05-05T17:56:58.652Z,5.70
2019-05-05T17:59:30.480Z,5.53
2019-05-05T18:02:04.734Z,7.80
2019-05-05T18:04:37.366Z,6.35
2019-05-05T18:07:14.372Z,4.87
2019-05-05T18:10:11.198Z,5.03
2019-05-05T18:13:03.597Z,4.75
2019-05-05T18:16:10.764Z,5.95
2019-05-05T18:18:44.270Z,4.58
2019-05-05T18:21:17.386Z,4.22
2019-05-05T18:23:49.107Z,4.83
2019-05-05T18:26:24.348Z,4.58
2019-05-05T18:28:57.541Z,4.30
2019-05-05T18:31:29.217Z,5.85
2019-05-05T18:34:01.328Z,4.40
2019-05-05T18:36:33.731Z,4.40
2019-05-05T18:39:06.655Z,5.37
2019-05-05T18:41:52.226Z,4.67
2019-05-05T18:44:30.984Z,4.47
2019-05-05T18:47:18.698Z,5.08
2019-05-05T18:57:56.388Z,5.35
2019-05-05T19:00:45.413Z,5.85
2019-05-05T19:03:21.162Z,5.80
2019-05-05T19:06:00.091Z,5.80
2019-05-05T19:08:53.778Z,6.72
2019-05-05T19:11:18.363Z,7.33
2019-05-05T19:13:50.160Z,6.20
2019-05-05T19:16:23.778Z,6.47
2019-05-05T19:18:55.769Z,6.45
2019-05-05T19:21:35.978Z,7.50
2019-05-05T19:24:07.948Z,7.83
2019-05-05T19:26:42.789Z,8.13
2019-05-05T19:29:15.423Z,8.70
2019-05-05T19:31:47.139Z,9.40
2019-05-05T19:34:20.588Z,10.28
2019-05-05T19:36:55.145Z,10.23
2019-05-05T19:39:27.352Z,10.90
2019-05-05T19:42:00.889Z,10.38
2019-05-05T19:44:33.988Z,11.78
2019-05-05T19:47:17.098Z,13.18
2019-05-05T19:49:55.302Z,12.93
2019-05-05T19:52:29.912Z,13.78
2019-05-05T19:55:04.260Z,14.87
2019-05-05T19:57:37.056Z,15.63
2019-05-05T20:00:08.924Z,16.10
2019-05-05T20:02:43.940Z,17.15
2019-05-05T20:05:16.170Z,16.87
2019-05-05T20:07:49.803Z,22.87
2019-05-05T20:10:21.607Z,34.95
2019-05-05T20:12:54.141Z,23.02
2019-05-05T20:15:33.805Z,25.05
2019-05-05T20:31:45.588Z,18.80
2019-05-05T20:34:35.168Z,18.02
2019-05-05T20:37:13.997Z,19.40
2019-05-05T20:39:46.456Z,18.17
2019-05-05T20:42:18.135Z,18.48
2019-05-05T20:44:49.815Z,21.48
2019-05-05T20:47:24.743Z,19.50
2019-05-05T20:49:56.428Z,20.43
2019-05-05T20:52:28.344Z,19.42
2019-05-05T20:55:00.060Z,19.45
2019-05-05T20:57:34.334Z,21.10
2019-05-05T21:00:06.316Z,20.35
2019-05-05T21:02:39.519Z,19.65
2019-05-05T21:05:11.175Z,18.82
2019-05-05T21:07:44.365Z,19.15
2019-05-05T21:10:16.432Z,21.27
2019-05-05T21:12:49.184Z,18.27
2019-05-05T21:15:20.869Z,20.88
2019-05-05T21:17:54.130Z,19.45
2019-05-05T21:20:26.114Z,19.20
2019-05-05T21:23:05.779Z,18.57
2019-05-05T21:25:39.727Z,18.42
2019-05-05T21:28:11.485Z,17.48
2019-05-05T21:30:45.329Z,17.35
2019-05-05T21:33:19.846Z,15.13
2019-05-05T21:35:52.024Z,15.13
2019-05-05T21:38:23.830Z,16.30
2019-05-05T21:40:56.110Z,14.45
2019-05-05T21:43:28.224Z,14.05
2019-05-05T21:45:59.919Z,16.00
2019-05-05T21:48:35.162Z,15.80
2019-05-05T21:51:14.654Z,14.33
2019-05-05T21:54:14.566Z,15.03
2019-05-05T21:57:06.958Z,14.65
2019-05-05T21:59:51.717Z,14.20
2019-05-05T22:02:15.187Z,15.80
2019-05-05T22:04:46.617Z,14.80
2019-05-05T22:07:18.759Z,15.68
2019-05-05T22:09:50.737Z,15.00
2019-05-05T22:12:24.284Z,15.65
2019-05-05T22:15:00.183Z,14.68
2019-05-05T22:17:33.601Z,13.90
2019-05-05T22:20:16.002Z,15.15
2019-05-05T22:22:48.686Z,15.10
2019-05-05T22:25:21.156Z,13.70
2019-05-05T22:27:54.523Z,14.90
2019-05-05T22:30:26.994Z,12.35
2019-05-05T22:33:05.744Z,13.98
2019-05-05T22:35:36.031Z,15.68
2019-05-05T22:38:08.520Z,13.70
2019-05-05T22:40:40.298Z,14.00
2019-05-05T22:43:14.379Z,14.20
2019-05-05T22:45:45.945Z,14.50
2019-05-05T22:48:17.825Z,13.72
2019-05-05T22:50:50.016Z,13.32
2019-05-05T22:53:23.901Z,13.40
2019-05-05T22:55:55.509Z,11.00
2019-05-05T22:58:27.354Z,11.63
2019-05-05T23:00:59.146Z,12.85
2019-05-05T23:04:03.717Z,12.70
2019-05-05T23:06:35.659Z,12.58
2019-05-05T23:09:14.594Z,12.05
2019-05-05T23:11:47.817Z,13.45
2019-05-05T23:14:28.701Z,12.47
2019-05-05T23:20:18.280Z,14.78
2019-05-05T23:23:07.618Z,14.45
2019-05-05T23:25:45.769Z,13.15
2019-05-05T23:28:17.902Z,12.23
2019-05-05T23:30:50.916Z,10.90
2019-05-05T23:33:24.519Z,12.18
2019-05-05T23:35:56.731Z,11.43
2019-05-05T23:38:28.729Z,12.53
2019-05-05T23:41:03.701Z,12.20
2019-05-05T23:43:35.202Z,13.08
2019-05-05T23:46:07.014Z,11.57
2019-05-05T23:48:40.467Z,12.35
2019-05-05T23:51:14.002Z,12.20
2019-05-05T23:53:45.750Z,12.35
2019-05-05T23:56:17.516Z,13.30
2019-05-05T23:58:49.255Z,11.93
